sensor_id;sensor_type;location;lat;lon;timestamp;P1;durP1;ratioP1;P2;durP2;ratioP2
10667;SDS011;5382;42.136;24.796;2023-08-17T00:01:47;7.65;;;2.75;;
10667;SDS011;5382;42.136;24.796;2023-08-17T00:04:13;4.15;;;2.67;;
10667;SDS011;5382;42.136;24.796;2023-08-17T00:06:40;4.38;;;2.60;;
10667;SDS011;5382;42.136;24.796;2023-08-17T00:09:07;4.00;;;2.70;;
10667;SDS011;5382;42.136;24.796;2023-08-17T00:11:35;4.40;;;2.55;;
10667;SDS011;5382;42.136;24.796;2023-08-17T00:14:01;4.50;;;2.85;;
10667;SDS011;5382;42.136;24.796;2023-08-17T00:16:29;5.32;;;2.45;;
10667;SDS011;5382;42.136;24.796;2023-08-17T00:18:57;5.25;;;2.97;;
10667;SDS011;5382;42.136;24.796;2023-08-17T00:21:24;3.58;;;2.90;;
10667;SDS011;5382;42.136;24.796;2023-08-17T00:23:51;3.55;;;2.70;;
10667;SDS011;5382;42.136;24.796;2023-08-17T00:26:17;4.13;;;2.80;;
10667;SDS011;5382;42.136;24.796;2023-08-17T00:28:45;5.50;;;2.90;;
10667;SDS011;5382;42.136;24.796;2023-08-17T00:31:12;8.52;;;3.60;;
10667;SDS011;5382;42.136;24.796;2023-08-17T00:33:38;7.40;;;3.40;;
10667;SDS011;5382;42.136;24.796;2023-08-17T00:36:07;5.72;;;3.35;;
10667;SDS011;5382;42.136;24.796;2023-08-17T00:38:33;6.63;;;3.08;;
10667;SDS011;5382;42.136;24.796;2023-08-17T00:41:00;8.77;;;3.53;;
10667;SDS011;5382;42.136;24.796;2023-08-17T00:43:27;5.68;;;3.55;;
10667;SDS011;5382;42.136;24.796;2023-08-17T00:45:54;4.20;;;3.08;;
10667;SDS011;5382;42.136;24.796;2023-08-17T00:48:22;5.20;;;3.25;;
10667;SDS011;5382;42.136;24.796;2023-08-17T00:50:50;4.38;;;2.97;;
10667;SDS011;5382;42.136;24.796;2023-08-17T00:53:20;12.07;;;3.72;;
10667;SDS011;5382;42.136;24.796;2023-08-17T00:55:47;6.03;;;3.50;;
10667;SDS011;5382;42.136;24.796;2023-08-17T00:58:14;9.50;;;3.72;;
10667;SDS011;5382;42.136;24.796;2023-08-17T01:00:41;6.57;;;3.40;;
10667;SDS011;5382;42.136;24.796;2023-08-17T01:03:08;5.78;;;3.58;;
10667;SDS011;5382;42.136;24.796;2023-08-17T01:05:34;6.50;;;3.67;;
10667;SDS011;5382;42.136;24.796;2023-08-17T01:08:02;7.97;;;3.50;;
10667;SDS011;5382;42.136;24.796;2023-08-17T01:10:34;8.10;;;4.32;;
10667;SDS011;5382;42.136;24.796;2023-08-17T01:13:09;10.73;;;4.47;;
10667;SDS011;5382;42.136;24.796;2023-08-17T01:15:42;7.18;;;3.97;;
10667;SDS011;5382;42.136;24.796;2023-08-17T01:18:17;11.15;;;4.85;;
10667;SDS011;5382;42.136;24.796;2023-08-17T01:20:49;7.72;;;4.60;;
10667;SDS011;5382;42.136;24.796;2023-08-17T01:23:17;7.93;;;3.85;;
10667;SDS011;5382;42.136;24.796;2023-08-17T01:25:44;5.63;;;3.40;;
10667;SDS011;5382;42.136;24.796;2023-08-17T01:28:11;8.02;;;4.30;;
10667;SDS011;5382;42.136;24.796;2023-08-17T01:30:39;5.55;;;4.32;;
10667;SDS011;5382;42.136;24.796;2023-08-17T01:33:13;8.52;;;5.72;;
10667;SDS011;5382;42.136;24.796;2023-08-17T01:35:46;7.20;;;5.88;;
10667;SDS011;5382;42.136;24.796;2023-08-17T01:38:21;7.45;;;4.50;;
10667;SDS011;5382;42.136;24.796;2023-08-17T01:40:50;9.32;;;4.68;;
10667;SDS011;5382;42.136;24.796;2023-08-17T01:43:19;7.55;;;4.70;;
10667;SDS011;5382;42.136;24.796;2023-08-17T01:45:46;6.50;;;4.28;;
10667;SDS011;5382;42.136;24.796;2023-08-17T01:48:14;6.10;;;3.60;;
10667;SDS011;5382;42.136;24.796;2023-08-17T01:50:41;6.28;;;4.38;;
10667;SDS011;5382;42.136;24.796;2023-08-17T01:53:08;5.93;;;4.38;;
10667;SDS011;5382;42.136;24.796;2023-08-17T01:55:36;5.72;;;4.18;;
10667;SDS011;5382;42.136;24.796;2023-08-17T01:58:03;8.63;;;4.30;;
10667;SDS011;5382;42.136;24.796;2023-08-17T02:00:30;9.70;;;4.60;;
10667;SDS011;5382;42.136;24.796;2023-08-17T02:02:57;8.48;;;4.03;;
10667;SDS011;5382;42.136;24.796;2023-08-17T02:05:23;7.80;;;4.30;;
10667;SDS011;5382;42.136;24.796;2023-08-17T02:07:50;6.47;;;4.05;;
10667;SDS011;5382;42.136;24.796;2023-08-17T02:10:17;6.40;;;4.63;;
10667;SDS011;5382;42.136;24.796;2023-08-17T02:12:45;7.47;;;4.93;;
10667;SDS011;5382;42.136;24.796;2023-08-17T02:15:12;10.00;;;4.88;;
10667;SDS011;5382;42.136;24.796;2023-08-17T02:17:39;6.22;;;3.92;;
10667;SDS011;5382;42.136;24.796;2023-08-17T02:20:06;10.70;;;5.00;;
10667;SDS011;5382;42.136;24.796;2023-08-17T02:22:34;9.48;;;4.35;;
10667;SDS011;5382;42.136;24.796;2023-08-17T02:25:02;7.15;;;4.30;;
10667;SDS011;5382;42.136;24.796;2023-08-17T02:27:28;9.15;;;5.53;;
10667;SDS011;5382;42.136;24.796;2023-08-17T02:29:57;11.80;;;4.75;;
10667;SDS011;5382;42.136;24.796;2023-08-17T02:32:24;9.35;;;4.00;;
10667;SDS011;5382;42.136;24.796;2023-08-17T02:34:51;9.60;;;4.22;;
10667;SDS011;5382;42.136;24.796;2023-08-17T02:37:18;7.38;;;4.30;;
10667;SDS011;5382;42.136;24.796;2023-08-17T02:39:44;10.18;;;5.03;;
10667;SDS011;5382;42.136;24.796;2023-08-17T02:42:11;5.78;;;4.32;;
10667;SDS011;5382;42.136;24.796;2023-08-17T02:44:38;5.22;;;4.22;;
10667;SDS011;5382;42.136;24.796;2023-08-17T02:47:06;12.15;;;4.57;;
10667;SDS011;5382;42.136;24.796;2023-08-17T02:49:33;6.82;;;4.03;;
10667;SDS011;5382;42.136;24.796;2023-08-17T02:52:00;7.57;;;4.35;;
10667;SDS011;5382;42.136;24.796;2023-08-17T02:54:27;8.25;;;5.82;;
10667;SDS011;5382;42.136;24.796;2023-08-17T02:56:54;8.32;;;5.20;;
10667;SDS011;5382;42.136;24.796;2023-08-17T02:59:20;10.65;;;8.35;;
10667;SDS011;5382;42.136;24.796;2023-08-17T03:01:47;12.07;;;4.80;;
10667;SDS011;5382;42.136;24.796;2023-08-17T03:04:15;8.40;;;4.05;;
10667;SDS011;5382;42.136;24.796;2023-08-17T03:06:42;4.50;;;3.72;;
10667;SDS011;5382;42.136;24.796;2023-08-17T03:09:09;6.15;;;4.25;;
10667;SDS011;5382;42.136;24.796;2023-08-17T03:11:36;6.40;;;3.65;;
10667;SDS011;5382;42.136;24.796;2023-08-17T03:14:03;5.07;;;3.70;;
10667;SDS011;5382;42.136;24.796;2023-08-17T03:16:30;6.68;;;3.85;;
10667;SDS011;5382;42.136;24.796;2023-08-17T03:18:56;7.35;;;4.45;;
10667;SDS011;5382;42.136;24.796;2023-08-17T03:21:25;6.10;;;4.45;;
10667;SDS011;5382;42.136;24.796;2023-08-17T03:23:51;10.88;;;4.70;;
10667;SDS011;5382;42.136;24.796;2023-08-17T03:26:18;8.88;;;4.43;;
10667;SDS011;5382;42.136;24.796;2023-08-17T03:28:45;9.20;;;4.90;;
10667;SDS011;5382;42.136;24.796;2023-08-17T03:31:12;19.67;;;5.45;;
10667;SDS011;5382;42.136;24.796;2023-08-17T03:33:39;10.32;;;4.57;;
10667;SDS011;5382;42.136;24.796;2023-08-17T03:36:06;16.50;;;5.50;;
10667;SDS011;5382;42.136;24.796;2023-08-17T03:38:34;12.43;;;5.03;;
10667;SDS011;5382;42.136;24.796;2023-08-17T03:41:02;11.60;;;4.85;;
10667;SDS011;5382;42.136;24.796;2023-08-17T03:43:30;11.82;;;5.30;;
10667;SDS011;5382;42.136;24.796;2023-08-17T03:45:57;10.23;;;4.80;;
10667;SDS011;5382;42.136;24.796;2023-08-17T03:48:23;16.05;;;6.07;;
10667;SDS011;5382;42.136;24.796;2023-08-17T03:50:51;15.88;;;5.72;;
10667;SDS011;5382;42.136;24.796;2023-08-17T03:53:18;12.02;;;4.97;;
10667;SDS011;5382;42.136;24.796;2023-08-17T03:55:47;9.73;;;6.00;;
10667;SDS011;5382;42.136;24.796;2023-08-17T03:58:14;10.43;;;5.15;;
10667;SDS011;5382;42.136;24.796;2023-08-17T04:00:41;9.02;;;5.97;;
10667;SDS011;5382;42.136;24.796;2023-08-17T04:03:08;11.07;;;5.53;;
10667;SDS011;5382;42.136;24.796;2023-08-17T04:05:35;7.30;;;4.75;;
10667;SDS011;5382;42.136;24.796;2023-08-17T04:08:02;10.32;;;5.60;;
10667;SDS011;5382;42.136;24.796;2023-08-17T04:10:29;12.40;;;5.75;;
10667;SDS011;5382;42.136;24.796;2023-08-17T04:12:59;12.23;;;6.35;;
10667;SDS011;5382;42.136;24.796;2023-08-17T04:15:26;8.60;;;5.22;;
10667;SDS011;5382;42.136;24.796;2023-08-17T04:17:53;13.10;;;6.15;;
10667;SDS011;5382;42.136;24.796;2023-08-17T04:20:19;9.57;;;5.85;;
10667;SDS011;5382;42.136;24.796;2023-08-17T04:22:46;11.27;;;6.28;;
10667;SDS011;5382;42.136;24.796;2023-08-17T04:25:13;12.27;;;6.00;;
10667;SDS011;5382;42.136;24.796;2023-08-17T04:27:40;11.15;;;4.97;;
10667;SDS011;5382;42.136;24.796;2023-08-17T04:30:09;10.43;;;5.15;;
10667;SDS011;5382;42.136;24.796;2023-08-17T04:32:37;10.18;;;5.03;;
10667;SDS011;5382;42.136;24.796;2023-08-17T04:35:04;10.05;;;4.32;;
10667;SDS011;5382;42.136;24.796;2023-08-17T04:37:31;12.30;;;6.22;;
10667;SDS011;5382;42.136;24.796;2023-08-17T04:39:58;14.38;;;6.22;;
10667;SDS011;5382;42.136;24.796;2023-08-17T04:42:25;11.27;;;6.28;;
10667;SDS011;5382;42.136;24.796;2023-08-17T04:44:52;9.27;;;5.00;;
10667;SDS011;5382;42.136;24.796;2023-08-17T04:47:20;7.45;;;4.90;;
10667;SDS011;5382;42.136;24.796;2023-08-17T04:49:47;9.95;;;5.43;;
10667;SDS011;5382;42.136;24.796;2023-08-17T04:52:14;12.65;;;4.80;;
10667;SDS011;5382;42.136;24.796;2023-08-17T04:54:41;10.73;;;5.30;;
10667;SDS011;5382;42.136;24.796;2023-08-17T04:57:08;9.57;;;4.60;;
10667;SDS011;5382;42.136;24.796;2023-08-17T04:59:35;14.00;;;5.20;;
10667;SDS011;5382;42.136;24.796;2023-08-17T05:02:02;9.32;;;4.38;;
10667;SDS011;5382;42.136;24.796;2023-08-17T05:04:30;10.43;;;4.15;;
10667;SDS011;5382;42.136;24.796;2023-08-17T05:06:57;8.00;;;4.25;;
10667;SDS011;5382;42.136;24.796;2023-08-17T05:09:25;12.63;;;4.15;;
10667;SDS011;5382;42.136;24.796;2023-08-17T05:11:52;5.63;;;3.92;;
10667;SDS011;5382;42.136;24.796;2023-08-17T05:14:19;7.20;;;3.80;;
10667;SDS011;5382;42.136;24.796;2023-08-17T05:16:46;6.32;;;3.50;;
10667;SDS011;5382;42.136;24.796;2023-08-17T05:19:13;9.00;;;5.00;;
10667;SDS011;5382;42.136;24.796;2023-08-17T05:21:41;12.73;;;5.38;;
10667;SDS011;5382;42.136;24.796;2023-08-17T05:24:08;8.95;;;4.55;;
10667;SDS011;5382;42.136;24.796;2023-08-17T05:26:35;6.85;;;3.90;;
10667;SDS011;5382;42.136;24.796;2023-08-17T05:29:02;9.25;;;4.13;;
10667;SDS011;5382;42.136;24.796;2023-08-17T05:31:29;7.32;;;4.03;;
10667;SDS011;5382;42.136;24.796;2023-08-17T05:33:56;8.05;;;3.38;;
10667;SDS011;5382;42.136;24.796;2023-08-17T05:36:23;7.15;;;3.63;;
10667;SDS011;5382;42.136;24.796;2023-08-17T05:38:51;9.45;;;4.10;;
10667;SDS011;5382;42.136;24.796;2023-08-17T05:41:18;7.55;;;4.15;;
10667;SDS011;5382;42.136;24.796;2023-08-17T05:43:45;5.13;;;3.90;;
10667;SDS011;5382;42.136;24.796;2023-08-17T05:46:11;8.00;;;3.65;;
10667;SDS011;5382;42.136;24.796;2023-08-17T05:48:38;10.60;;;4.07;;
10667;SDS011;5382;42.136;24.796;2023-08-17T05:51:06;12.50;;;3.78;;
10667;SDS011;5382;42.136;24.796;2023-08-17T05:53:33;9.48;;;3.90;;
10667;SDS011;5382;42.136;24.796;2023-08-17T05:56:01;15.88;;;3.63;;
10667;SDS011;5382;42.136;24.796;2023-08-17T05:58:28;5.88;;;3.67;;
10667;SDS011;5382;42.136;24.796;2023-08-17T06:00:59;6.10;;;3.60;;
10667;SDS011;5382;42.136;24.796;2023-08-17T06:03:30;5.47;;;3.55;;
10667;SDS011;5382;42.136;24.796;2023-08-17T06:05:57;8.10;;;3.83;;
10667;SDS011;5382;42.136;24.796;2023-08-17T06:08:24;9.10;;;4.03;;
10667;SDS011;5382;42.136;24.796;2023-08-17T06:10:51;6.97;;;4.07;;
10667;SDS011;5382;42.136;24.796;2023-08-17T06:13:19;4.47;;;3.30;;
10667;SDS011;5382;42.136;24.796;2023-08-17T06:15:46;5.88;;;3.33;;
10667;SDS011;5382;42.136;24.796;2023-08-17T06:18:14;7.15;;;3.70;;
10667;SDS011;5382;42.136;24.796;2023-08-17T06:20:41;5.72;;;3.50;;
10667;SDS011;5382;42.136;24.796;2023-08-17T06:23:08;6.95;;;3.03;;
10667;SDS011;5382;42.136;24.796;2023-08-17T06:25:34;9.95;;;4.18;;
10667;SDS011;5382;42.136;24.796;2023-08-17T06:28:01;6.88;;;3.80;;
10667;SDS011;5382;42.136;24.796;2023-08-17T06:30:29;5.35;;;3.33;;
10667;SDS011;5382;42.136;24.796;2023-08-17T06:32:56;9.30;;;3.35;;
10667;SDS011;5382;42.136;24.796;2023-08-17T06:35:24;4.38;;;3.13;;
10667;SDS011;5382;42.136;24.796;2023-08-17T06:37:51;8.10;;;3.63;;
10667;SDS011;5382;42.136;24.796;2023-08-17T06:40:21;6.78;;;3.78;;
10667;SDS011;5382;42.136;24.796;2023-08-17T06:42:48;11.95;;;3.97;;
10667;SDS011;5382;42.136;24.796;2023-08-17T06:45:15;7.05;;;3.60;;
10667;SDS011;5382;42.136;24.796;2023-08-17T06:47:45;8.88;;;4.03;;
10667;SDS011;5382;42.136;24.796;2023-08-17T06:50:13;8.85;;;3.65;;
10667;SDS011;5382;42.136;24.796;2023-08-17T06:52:40;25.55;;;11.40;;
10667;SDS011;5382;42.136;24.796;2023-08-17T06:55:07;9.93;;;4.97;;
10667;SDS011;5382;42.136;24.796;2023-08-17T06:57:35;8.52;;;3.40;;
10667;SDS011;5382;42.136;24.796;2023-08-17T07:00:02;8.45;;;3.40;;
10667;SDS011;5382;42.136;24.796;2023-08-17T07:02:31;16.80;;;9.95;;
10667;SDS011;5382;42.136;24.796;2023-08-17T07:04:59;10.88;;;4.07;;
10667;SDS011;5382;42.136;24.796;2023-08-17T07:07:26;9.40;;;3.70;;
10667;SDS011;5382;42.136;24.796;2023-08-17T07:09:52;7.65;;;3.17;;
10667;SDS011;5382;42.136;24.796;2023-08-17T07:12:19;7.25;;;3.60;;
10667;SDS011;5382;42.136;24.796;2023-08-17T07:14:46;6.63;;;3.75;;
10667;SDS011;5382;42.136;24.796;2023-08-17T07:17:13;7.38;;;3.30;;
10667;SDS011;5382;42.136;24.796;2023-08-17T07:19:40;7.68;;;3.42;;
10667;SDS011;5382;42.136;24.796;2023-08-17T07:22:09;7.28;;;3.25;;
10667;SDS011;5382;42.136;24.796;2023-08-17T07:24:36;6.55;;;3.42;;
10667;SDS011;5382;42.136;24.796;2023-08-17T07:27:03;7.22;;;3.28;;
10667;SDS011;5382;42.136;24.796;2023-08-17T07:29:30;6.55;;;3.50;;
10667;SDS011;5382;42.136;24.796;2023-08-17T07:31:57;7.60;;;3.05;;
10667;SDS011;5382;42.136;24.796;2023-08-17T07:34:26;4.15;;;3.38;;
10667;SDS011;5382;42.136;24.796;2023-08-17T07:36:54;11.13;;;3.20;;
10667;SDS011;5382;42.136;24.796;2023-08-17T07:39:22;6.40;;;3.30;;
10667;SDS011;5382;42.136;24.796;2023-08-17T07:41:50;8.27;;;3.63;;
10667;SDS011;5382;42.136;24.796;2023-08-17T07:44:17;10.95;;;3.92;;
10667;SDS011;5382;42.136;24.796;2023-08-17T07:46:43;7.50;;;3.10;;
10667;SDS011;5382;42.136;24.796;2023-08-17T07:49:10;8.68;;;3.10;;
10667;SDS011;5382;42.136;24.796;2023-08-17T07:51:37;6.63;;;3.17;;
10667;SDS011;5382;42.136;24.796;2023-08-17T07:54:04;6.13;;;3.65;;
10667;SDS011;5382;42.136;24.796;2023-08-17T07:56:32;6.55;;;3.13;;
10667;SDS011;5382;42.136;24.796;2023-08-17T07:58:59;5.32;;;3.20;;
10667;SDS011;5382;42.136;24.796;2023-08-17T08:01:26;4.90;;;3.35;;
10667;SDS011;5382;42.136;24.796;2023-08-17T08:03:53;6.00;;;2.95;;
10667;SDS011;5382;42.136;24.796;2023-08-17T08:06:20;4.28;;;2.83;;
10667;SDS011;5382;42.136;24.796;2023-08-17T08:08:48;3.25;;;2.92;;
10667;SDS011;5382;42.136;24.796;2023-08-17T08:11:14;5.82;;;3.22;;
10667;SDS011;5382;42.136;24.796;2023-08-17T08:13:43;7.95;;;2.95;;
10667;SDS011;5382;42.136;24.796;2023-08-17T08:16:09;3.08;;;2.65;;
10667;SDS011;5382;42.136;24.796;2023-08-17T08:18:36;9.20;;;2.92;;
10667;SDS011;5382;42.136;24.796;2023-08-17T08:21:03;6.43;;;2.55;;
10667;SDS011;5382;42.136;24.796;2023-08-17T08:23:30;8.85;;;3.42;;
10667;SDS011;5382;42.136;24.796;2023-08-17T08:25:57;4.55;;;2.85;;
10667;SDS011;5382;42.136;24.796;2023-08-17T08:28:24;5.28;;;2.40;;
10667;SDS011;5382;42.136;24.796;2023-08-17T08:30:52;5.78;;;2.95;;
10667;SDS011;5382;42.136;24.796;2023-08-17T08:33:19;6.25;;;2.53;;
10667;SDS011;5382;42.136;24.796;2023-08-17T08:35:46;5.07;;;2.60;;
10667;SDS011;5382;42.136;24.796;2023-08-17T08:38:13;8.77;;;2.47;;
10667;SDS011;5382;42.136;24.796;2023-08-17T08:40:40;5.15;;;2.55;;
10667;SDS011;5382;42.136;24.796;2023-08-17T08:43:08;7.70;;;2.90;;
10667;SDS011;5382;42.136;24.796;2023-08-17T08:45:35;4.35;;;2.40;;
10667;SDS011;5382;42.136;24.796;2023-08-17T08:48:07;9.38;;;2.58;;
10667;SDS011;5382;42.136;24.796;2023-08-17T08:50:35;5.28;;;3.38;;
10667;SDS011;5382;42.136;24.796;2023-08-17T08:53:02;9.00;;;2.75;;
10667;SDS011;5382;42.136;24.796;2023-08-17T08:55:34;9.60;;;2.78;;
10667;SDS011;5382;42.136;24.796;2023-08-17T08:58:04;9.02;;;2.60;;
10667;SDS011;5382;42.136;24.796;2023-08-17T09:00:31;4.57;;;2.42;;
10667;SDS011;5382;42.136;24.796;2023-08-17T09:02:59;6.47;;;2.50;;
10667;SDS011;5382;42.136;24.796;2023-08-17T09:05:30;6.97;;;2.55;;
10667;SDS011;5382;42.136;24.796;2023-08-17T09:07:59;4.57;;;2.70;;
10667;SDS011;5382;42.136;24.796;2023-08-17T09:10:28;6.22;;;2.53;;
10667;SDS011;5382;42.136;24.796;2023-08-17T09:12:55;5.47;;;3.25;;
10667;SDS011;5382;42.136;24.796;2023-08-17T09:15:21;7.78;;;3.05;;
10667;SDS011;5382;42.136;24.796;2023-08-17T09:17:48;4.38;;;2.60;;
10667;SDS011;5382;42.136;24.796;2023-08-17T09:23:11;5.15;;;2.22;;
10667;SDS011;5382;42.136;24.796;2023-08-17T09:25:39;5.47;;;2.40;;
10667;SDS011;5382;42.136;24.796;2023-08-17T09:28:07;3.67;;;2.28;;
10667;SDS011;5382;42.136;24.796;2023-08-17T09:30:48;8.85;;;2.78;;
10667;SDS011;5382;42.136;24.796;2023-08-17T09:33:17;3.72;;;2.10;;
10667;SDS011;5382;42.136;24.796;2023-08-17T09:35:45;8.65;;;2.35;;
10667;SDS011;5382;42.136;24.796;2023-08-17T09:38:12;3.60;;;2.17;;
10667;SDS011;5382;42.136;24.796;2023-08-17T09:40:39;4.45;;;2.22;;
10667;SDS011;5382;42.136;24.796;2023-08-17T09:43:06;5.55;;;2.38;;
10667;SDS011;5382;42.136;24.796;2023-08-17T09:45:33;50.60;;;4.65;;
10667;SDS011;5382;42.136;24.796;2023-08-17T09:47:59;10.38;;;3.00;;
10667;SDS011;5382;42.136;24.796;2023-08-17T09:50:27;6.03;;;2.33;;
10667;SDS011;5382;42.136;24.796;2023-08-17T09:52:55;7.43;;;2.15;;
10667;SDS011;5382;42.136;24.796;2023-08-17T09:55:22;7.78;;;2.40;;
10667;SDS011;5382;42.136;24.796;2023-08-17T09:57:49;5.38;;;2.10;;
10667;SDS011;5382;42.136;24.796;2023-08-17T10:00:17;8.15;;;2.15;;
10667;SDS011;5382;42.136;24.796;2023-08-17T10:02:44;3.63;;;2.08;;
10667;SDS011;5382;42.136;24.796;2023-08-17T10:05:12;5.72;;;2.50;;
10667;SDS011;5382;42.136;24.796;2023-08-17T10:07:41;2.00;;;1.90;;
10667;SDS011;5382;42.136;24.796;2023-08-17T10:10:13;11.18;;;2.97;;
10667;SDS011;5382;42.136;24.796;2023-08-17T10:12:48;5.82;;;2.45;;
10667;SDS011;5382;42.136;24.796;2023-08-17T10:15:21;10.77;;;2.40;;
10667;SDS011;5382;42.136;24.796;2023-08-17T10:17:58;9.48;;;2.45;;
10667;SDS011;5382;42.136;24.796;2023-08-17T10:20:29;5.07;;;2.00;;
10667;SDS011;5382;42.136;24.796;2023-08-17T10:23:00;6.43;;;2.80;;
10667;SDS011;5382;42.136;24.796;2023-08-17T10:25:35;4.10;;;1.88;;
10667;SDS011;5382;42.136;24.796;2023-08-17T10:28:03;8.02;;;2.40;;
10667;SDS011;5382;42.136;24.796;2023-08-17T10:30:31;3.95;;;2.00;;
10667;SDS011;5382;42.136;24.796;2023-08-17T10:32:59;2.75;;;1.90;;
10667;SDS011;5382;42.136;24.796;2023-08-17T10:35:26;4.70;;;1.90;;
10667;SDS011;5382;42.136;24.796;2023-08-17T10:37:53;5.68;;;2.38;;
10667;SDS011;5382;42.136;24.796;2023-08-17T10:40:25;13.05;;;2.20;;
10667;SDS011;5382;42.136;24.796;2023-08-17T10:42:55;3.40;;;2.38;;
10667;SDS011;5382;42.136;24.796;2023-08-17T10:45:27;4.45;;;2.22;;
10667;SDS011;5382;42.136;24.796;2023-08-17T10:50:59;3.30;;;1.95;;
10667;SDS011;5382;42.136;24.796;2023-08-17T10:53:27;3.45;;;1.88;;
10667;SDS011;5382;42.136;24.796;2023-08-17T10:56:04;11.18;;;2.30;;
10667;SDS011;5382;42.136;24.796;2023-08-17T10:58:35;3.17;;;2.03;;
10667;SDS011;5382;42.136;24.796;2023-08-17T11:01:01;6.03;;;2.58;;
10667;SDS011;5382;42.136;24.796;2023-08-17T11:03:28;3.70;;;2.00;;
10667;SDS011;5382;42.136;24.796;2023-08-17T11:05:55;2.95;;;2.22;;
10667;SDS011;5382;42.136;24.796;2023-08-17T11:08:23;8.88;;;2.58;;
10667;SDS011;5382;42.136;24.796;2023-08-17T11:10:58;4.57;;;2.10;;
10667;SDS011;5382;42.136;24.796;2023-08-17T11:13:29;7.15;;;2.40;;
10667;SDS011;5382;42.136;24.796;2023-08-17T11:15:58;6.05;;;2.22;;
10667;SDS011;5382;42.136;24.796;2023-08-17T11:18:26;5.10;;;2.15;;
10667;SDS011;5382;42.136;24.796;2023-08-17T11:20:53;6.80;;;1.83;;
10667;SDS011;5382;42.136;24.796;2023-08-17T11:23:21;5.10;;;2.15;;
10667;SDS011;5382;42.136;24.796;2023-08-17T11:25:50;5.80;;;2.20;;
10667;SDS011;5382;42.136;24.796;2023-08-17T11:28:19;4.72;;;2.17;;
10667;SDS011;5382;42.136;24.796;2023-08-17T11:30:45;3.53;;;1.95;;
10667;SDS011;5382;42.136;24.796;2023-08-17T11:33:24;2.60;;;1.88;;
10667;SDS011;5382;42.136;24.796;2023-08-17T11:35:53;3.15;;;1.98;;
10667;SDS011;5382;42.136;24.796;2023-08-17T11:38:20;5.75;;;1.90;;
10667;SDS011;5382;42.136;24.796;2023-08-17T11:40:47;2.60;;;2.00;;
10667;SDS011;5382;42.136;24.796;2023-08-17T11:43:15;6.05;;;2.28;;
10667;SDS011;5382;42.136;24.796;2023-08-17T11:45:43;3.10;;;1.67;;
10667;SDS011;5382;42.136;24.796;2023-08-17T11:48:10;6.15;;;1.88;;
10667;SDS011;5382;42.136;24.796;2023-08-17T11:50:39;4.40;;;1.83;;
10667;SDS011;5382;42.136;24.796;2023-08-17T11:53:06;10.30;;;2.20;;
10667;SDS011;5382;42.136;24.796;2023-08-17T11:55:33;4.50;;;1.88;;
10667;SDS011;5382;42.136;24.796;2023-08-17T11:58:01;7.03;;;1.90;;
10667;SDS011;5382;42.136;24.796;2023-08-17T12:00:28;5.68;;;1.95;;
10667;SDS011;5382;42.136;24.796;2023-08-17T12:03:02;4.45;;;2.00;;
10667;SDS011;5382;42.136;24.796;2023-08-17T12:05:30;3.60;;;2.08;;
10667;SDS011;5382;42.136;24.796;2023-08-17T12:08:00;24.55;;;3.30;;
10667;SDS011;5382;42.136;24.796;2023-08-17T12:10:27;44.47;;;4.78;;
10667;SDS011;5382;42.136;24.796;2023-08-17T12:12:56;3.15;;;1.70;;
10667;SDS011;5382;42.136;24.796;2023-08-17T12:15:24;3.10;;;1.83;;
10667;SDS011;5382;42.136;24.796;2023-08-17T12:17:58;7.20;;;1.75;;
10667;SDS011;5382;42.136;24.796;2023-08-17T12:20:25;7.53;;;2.20;;
10667;SDS011;5382;42.136;24.796;2023-08-17T12:22:52;4.65;;;1.80;;
10667;SDS011;5382;42.136;24.796;2023-08-17T12:25:21;3.60;;;1.73;;
10667;SDS011;5382;42.136;24.796;2023-08-17T12:27:49;51.00;;;5.43;;
10667;SDS011;5382;42.136;24.796;2023-08-17T12:30:24;5.47;;;1.70;;
10667;SDS011;5382;42.136;24.796;2023-08-17T12:32:52;4.68;;;1.75;;
10667;SDS011;5382;42.136;24.796;2023-08-17T12:35:19;8.52;;;1.95;;
10667;SDS011;5382;42.136;24.796;2023-08-17T12:37:49;7.32;;;1.90;;
10667;SDS011;5382;42.136;24.796;2023-08-17T12:40:15;3.20;;;1.45;;
10667;SDS011;5382;42.136;24.796;2023-08-17T12:42:44;16.73;;;2.55;;
10667;SDS011;5382;42.136;24.796;2023-08-17T12:45:10;31.40;;;4.40;;
10667;SDS011;5382;42.136;24.796;2023-08-17T12:47:37;8.32;;;2.15;;
10667;SDS011;5382;42.136;24.796;2023-08-17T12:50:04;23.67;;;2.80;;
10667;SDS011;5382;42.136;24.796;2023-08-17T12:52:32;22.42;;;2.80;;
10667;SDS011;5382;42.136;24.796;2023-08-17T12:54:59;41.90;;;4.32;;
10667;SDS011;5382;42.136;24.796;2023-08-17T12:57:26;18.15;;;2.85;;
10667;SDS011;5382;42.136;24.796;2023-08-17T12:59:54;6.00;;;1.73;;
10667;SDS011;5382;42.136;24.796;2023-08-17T13:02:21;4.85;;;1.83;;
10667;SDS011;5382;42.136;24.796;2023-08-17T13:04:48;4.15;;;1.73;;
10667;SDS011;5382;42.136;24.796;2023-08-17T13:07:15;4.53;;;2.17;;
10667;SDS011;5382;42.136;24.796;2023-08-17T13:09:42;7.15;;;2.30;;
10667;SDS011;5382;42.136;24.796;2023-08-17T13:12:10;4.72;;;1.95;;
10667;SDS011;5382;42.136;24.796;2023-08-17T13:14:39;4.15;;;1.67;;
10667;SDS011;5382;42.136;24.796;2023-08-17T13:17:07;6.43;;;1.92;;
10667;SDS011;5382;42.136;24.796;2023-08-17T13:19:34;2.95;;;2.30;;
10667;SDS011;5382;42.136;24.796;2023-08-17T13:22:01;4.38;;;1.73;;
10667;SDS011;5382;42.136;24.796;2023-08-17T13:24:29;6.38;;;1.98;;
10667;SDS011;5382;42.136;24.796;2023-08-17T13:26:56;8.05;;;2.40;;
10667;SDS011;5382;42.136;24.796;2023-08-17T13:29:23;15.48;;;2.38;;
10667;SDS011;5382;42.136;24.796;2023-08-17T13:31:49;4.65;;;2.33;;
10667;SDS011;5382;42.136;24.796;2023-08-17T13:34:18;11.77;;;2.72;;
10667;SDS011;5382;42.136;24.796;2023-08-17T13:36:44;10.02;;;2.50;;
10667;SDS011;5382;42.136;24.796;2023-08-17T13:39:11;2.03;;;1.50;;
10667;SDS011;5382;42.136;24.796;2023-08-17T13:41:38;3.55;;;1.90;;
10667;SDS011;5382;42.136;24.796;2023-08-17T13:44:06;25.02;;;3.40;;
10667;SDS011;5382;42.136;24.796;2023-08-17T13:46:33;4.10;;;1.73;;
10667;SDS011;5382;42.136;24.796;2023-08-17T13:48:59;5.15;;;2.22;;
10667;SDS011;5382;42.136;24.796;2023-08-17T13:51:28;4.65;;;2.10;;
10667;SDS011;5382;42.136;24.796;2023-08-17T13:53:55;3.95;;;1.83;;
10667;SDS011;5382;42.136;24.796;2023-08-17T13:56:21;15.18;;;3.13;;
10667;SDS011;5382;42.136;24.796;2023-08-17T13:58:48;8.40;;;2.25;;
10667;SDS011;5382;42.136;24.796;2023-08-17T14:01:15;5.32;;;2.40;;
10667;SDS011;5382;42.136;24.796;2023-08-17T14:03:43;6.53;;;2.30;;
10667;SDS011;5382;42.136;24.796;2023-08-17T14:06:10;13.05;;;2.60;;
10667;SDS011;5382;42.136;24.796;2023-08-17T14:08:38;14.88;;;2.95;;
10667;SDS011;5382;42.136;24.796;2023-08-17T14:11:05;4.50;;;2.65;;
10667;SDS011;5382;42.136;24.796;2023-08-17T14:13:32;5.00;;;2.28;;
10667;SDS011;5382;42.136;24.796;2023-08-17T14:16:01;12.13;;;2.65;;
10667;SDS011;5382;42.136;24.796;2023-08-17T14:18:28;24.25;;;3.13;;
10667;SDS011;5382;42.136;24.796;2023-08-17T14:20:55;9.80;;;2.80;;
10667;SDS011;5382;42.136;24.796;2023-08-17T14:23:22;4.55;;;2.13;;
10667;SDS011;5382;42.136;24.796;2023-08-17T14:25:50;7.28;;;2.40;;
10667;SDS011;5382;42.136;24.796;2023-08-17T14:28:17;12.32;;;3.10;;
10667;SDS011;5382;42.136;24.796;2023-08-17T14:30:44;4.72;;;2.00;;
10667;SDS011;5382;42.136;24.796;2023-08-17T14:33:11;8.43;;;2.35;;
10667;SDS011;5382;42.136;24.796;2023-08-17T14:35:39;13.85;;;2.75;;
10667;SDS011;5382;42.136;24.796;2023-08-17T14:38:06;11.55;;;2.88;;
10667;SDS011;5382;42.136;24.796;2023-08-17T14:40:34;5.97;;;2.40;;
10667;SDS011;5382;42.136;24.796;2023-08-17T14:43:03;13.45;;;2.70;;
10667;SDS011;5382;42.136;24.796;2023-08-17T14:45:30;8.65;;;3.00;;
10667;SDS011;5382;42.136;24.796;2023-08-17T14:47:56;5.40;;;1.90;;
10667;SDS011;5382;42.136;24.796;2023-08-17T14:50:24;3.15;;;1.70;;
10667;SDS011;5382;42.136;24.796;2023-08-17T14:52:51;4.85;;;2.45;;
10667;SDS011;5382;42.136;24.796;2023-08-17T14:55:18;6.22;;;2.40;;